x

Port Orford - 15 Nm West Of Port Orford, Or (46015) Wave Buoy

8:50pm - Sun 27th Jul 2014 All times are PDT. -7 hours from GMT.

  • Sig Wave height 6.6ft
  • Swell Direction
  • Peak Period 6s
  • Average Period 5s
  • Wind
    18mph, 20mph gusts
  • Sea Temp 51°f
  • Air Temp 54°f
  • Sea Pressure 1017.6mb
  • Port Orford - 15 Nm West Of Port Orford, Or
  • Port Orford - 15 Nm West Of Port Orford, Or

More Historic Weather Station data

Upgrade to MSW Pro to gain access to the past 30 days of data for over 8000 Wavebouys and Weather Stations around the globe.

Join Pro

Comparision Forecast

View Surf forecast
   
Sun 07/27 8:50pm 6.5ft 6s 5s 18 20 mph 1017.6mb 51f 54f
6:50pm 6.5ft 7s 5s 20 25 mph 1017.2mb 51f 56f
5:50pm 7ft 8s 5s 22 27 mph 1017.1mb 51f 56f
4:50pm 7ft 7s 5s 25 29 mph 1017.1mb 51f 56f
3:50pm 6.5ft 7s 5s 22 27 mph 1017.5mb 51f 56f
2:50pm 7ft 7s 5s 25 29 mph 1017.5mb 51f 56f
1:50pm 7ft 6s 5s 25 29 mph 1017.6mb 51f 55f
12:50pm 7ft 7s 5s 27 29 mph 1017.4mb 51f 55f
11:50am 7.5ft 7s 5s 25 31 mph 1017.8mb 51f 55f
10:50am 7ft 7s 5s 27 31 mph 1017.9mb 52f 55f
9:50am 7.5ft 7s 5s 27 34 mph 1017.7mb 52f 55f
8:50am 7ft 7s 5s 27 31 mph 1017.8mb 53f 55f
7:50am 7.5ft 7s 5s 27 31 mph 1017.6mb 53f 55f
6:50am 7ft 7s 5s 27 31 mph 1017.3mb 53f 55f
5:50am 7ft 7s 5s 27 31 mph 1017.2mb 54f 56f
4:50am 6ft 7s 5s 29 34 mph 1017.2mb 53f 56f
3:50am 6ft 7s 5s 25 31 mph 1017.3mb 53f 55f
2:50am 6ft 7s 5s 22 27 mph 1017.7mb 53f 56f
1:50am 6ft 7s 5s 22 27 mph 1018mb 54f 56f
12:50am 6ft 7s 5s 22 25 mph 1018mb 54f 56f
Sat 07/26 11:50pm 6ft 6s 5s 18 22 mph 1018.6mb 54f 55f
10:50pm 5ft 6s 5s 18 22 mph 1018.6mb 54f 55f
9:50pm 5.5ft 6s 5s 18 22 mph 1018.8mb 54f 56f
8:50pm 6ft 6s 5s 18 20 mph 1018.7mb 54f 56f
7:50pm 5.5ft 7s 5s 22 27 mph 1018.3mb 54f 56f
6:50pm 5.5ft 6s 5s 22 27 mph 1018.4mb 54f 57f
5:50pm 5.5ft 5s 5s 22 27 mph 1018.7mb 54f 57f
4:50pm 5ft 5s 4s 22 27 mph 1018.8mb 54f 57f
3:50pm 5ft 5s 4s 22 27 mph 1018.7mb 54f 57f
2:50pm 5ft 5s 4s 25 29 mph 1018.8mb 54f 57f
1:50pm 4.5ft 5s 4s 25 29 mph 1018.7mb 54f 57f
12:50pm 4.5ft 5s 4s 25 29 mph 1019mb 54f 56f
11:50am 4.5ft 5s 4s 25 29 mph 1019.2mb 54f 56f
10:50am 4.5ft 5s 4s 22 27 mph 1019.3mb 53f 56f
9:50am 4.5ft 5s 4s 22 27 mph 1019.3mb 53f 56f
8:50am 4ft 7s 4s 22 27 mph 1019.2mb 53f 56f
7:50am 3.5ft 5s 4s 20 22 mph 1019mb 53f 55f
6:50am 3.5ft 6s 4s 18 20 mph 1018.9mb 53f 55f
5:50am 3.5ft 6s 4s 16 20 mph 1018.9mb 53f 55f
4:50am 3.5ft 7s 4s 16 18 mph 1018.7mb 53f 55f
3:50am 4ft 7s 5s 16 20 mph 1018.9mb 53f 55f
2:50am 3.5ft 7s 4s 18 20 mph 1018.9mb 53f 56f
1:50am 4ft 7s 5s 18 20 mph 1018.9mb 53f 56f
12:50am 3.5ft 7s 5s 16
mph
1019.1mb 54f 55f
Fri 07/25 11:50pm 3.5ft 7s 5s 13 16 mph 1019.3mb 54f 55f
10:50pm 4ft 7s 5s 16 18 mph 1019mb 54f 55f
9:50pm 4.5ft 7s 5s 13 18 mph 1019.1mb 53f 55f
8:50pm 4.5ft 7s 5s 20 22 mph 1018.6mb 53f 56f
7:50pm 4.5ft 8s 5s 18 20 mph 1018.6mb 53f 56f
6:50pm 4.5ft 7s 5s 18 22 mph 1018.7mb 53f 56f
5:50pm 4.5ft 4s 4s 20 22 mph 1018.7mb 53f 57f
4:50pm 5ft 5s 5s 20 22 mph 1018.7mb 53f 56f
3:50pm 4.5ft 4s 5s 20 25 mph 1018.6mb 53f 56f
2:50pm 4.5ft 5s 5s 20 25 mph 1018.8mb 53f 56f
1:50pm 5ft 8s 5s 22 27 mph 1018.8mb 53f 56f
12:50pm 5ft 7s 5s 22 25 mph 1019.1mb 53f 56f
11:50am 5ft 8s 5s 22 27 mph 1018.9mb 53f 56f
10:50am 5ft 8s 5s 22 27 mph 1019mb 52f 55f
9:50am 5ft 5s 5s 22 25 mph 1019mb 52f 55f
8:50am 5ft 8s 5s 20 25 mph 1019.2mb 52f 55f
7:50am 5.5ft 8s 5s 22 27 mph 1019mb 52f 55f
6:50am 5.5ft 8s 5s 22 27 mph 1018.9mb 52f 55f
5:50am 5.5ft 8s 5s 22 25 mph 1019.1mb 52f 55f
4:50am 6ft 8s 5s 20 22 mph 1019.3mb 52f 55f
3:50am 6ft 8s 5s 22 25 mph 1019.2mb 52f 55f
2:50am 6ft 8s 6s 22 27 mph 1019.4mb 52f 55f
1:50am 6ft 8s 5s 22 27 mph 1019.8mb 53f 56f
12:50am 6ft 8s 6s 22 27 mph 1020.2mb 53f 56f
Thu 07/24 11:50pm 6.5ft 9s 6s 22 25 mph 1020.4mb 54f 56f
10:50pm 6.5ft 9s 6s 22 27 mph 1020.9mb 55f 56f
9:50pm 7ft 8s 6s 22 27 mph 1021mb 55f 56f
8:50pm 7.5ft 9s 6s 22 27 mph 1020.8mb 55f 57f
6:50pm 8ft 9s 6s 25 31 mph 1020.8mb 56f 58f
5:50pm 7.5ft 9s 6s 22 27 mph 1021.4mb 55f 58f
4:50pm 7ft 9s 6s 22 27 mph 1021.9mb 54f 58f
3:50pm 7.5ft 10s 7s 20 25 mph 1022.8mb 55f 58f
2:50pm 8ft 10s 8s 20 22 mph 1023.7mb 56f 58f
1:50pm 8ft 10s 8s 16 18 mph 1024.4mb 56f 58f
12:50pm 9ft 9s 8s 13 16 mph 1025mb 57f 59f
11:50am 8ft 10s 8s 9 11 mph 1025.2mb 57f 58f
10:50am 5ft 10s 8s 9
mph
1025.2mb 57f 57f
9:50am 5.5ft 9s 8s 9
mph
1025.2mb 57f 56f
8:50am 4.5ft 8s 7s 7
mph
1025.3mb 56f 57f
7:50am 4ft 8s 7s 4
mph
1025.2mb 56f 56f
6:50am 4ft 7s 6s 4 7 mph 1025mb 56f 56f
5:50am 3.5ft 8s 6s 4 7 mph 1024.9mb 56f 56f
4:50am 3.5ft 9s 6s 4
mph
1025mb 56f 55f